KPIH/PIH METAR and TAF weather

Enter ICAO airport designator
Station Type Date Time Source
KPIH METAR 2019/12/08 18:53 UTC NOAA

KPIH 081853Z 23019KT 10SM BKN014 BKN070 BKN120 05/02 A2988 RMK AO2 PK WND 24026/1832 SLP112 T00500017


Station Type Date Time Source
KPIH Decoded METAR 2019/12/08 18:53 UTC NOAA

POCATELLO REGIONAL AIRPORT, ID, United States (KPIH) 42-55N 112-36W 1359M
Dec 08, 2019 - 01:53 PM EST / 2019.12.08 1853 UTC
Wind: from the SW (230 degrees) at 22 MPH (19 KT):0
Visibility: 10 mile(s):0
Sky conditions: mostly cloudy
Temperature: 41.0 F (5.0 C)
Dew Point: 35.1 F (1.7 C)
Relative Humidity: 79%
Pressure (altimeter): 29.88 in. Hg (1011 hPa)
ob: KPIH 081853Z 23019KT 10SM BKN014 BKN070 BKN120 05/02 A2988 RMK AO2 PK WND 24026/1832 SLP112 T00500017
cycle: 19

Station Type Date Time Source
KPIH TAF 2019/12/08 19:58 UTC NOAA

TAF
AMD KPIH 081858Z 0819/0918 24017G24KT P6SM VCSH BKN015 BKN025 BKN070
FM082300 26010G18KT 4SM -SN OVC015
FM090500 VRB06KT P6SM SCT015 SCT030

Example: see airport list